createdAt,value
2023-03-11T00:01:20.166Z,47.44
2023-03-11T00:03:47.655Z,47.39
2023-03-11T00:06:15.130Z,47.26
2023-03-11T00:08:42.738Z,47.10
2023-03-11T00:11:10.165Z,46.97
2023-03-11T00:13:38.002Z,47.38
2023-03-11T00:16:05.946Z,47.27
2023-03-11T00:18:33.616Z,46.95
2023-03-11T00:21:01.379Z,47.09
2023-03-11T00:23:29.366Z,46.80
2023-03-11T00:25:57.043Z,46.54
2023-03-11T00:28:26.783Z,46.63
2023-03-11T00:30:55.260Z,46.94
2023-03-11T00:33:23.413Z,46.53
2023-03-11T00:35:51.395Z,46.90
2023-03-11T00:38:20.690Z,46.82
2023-03-11T00:40:48.704Z,46.66
2023-03-11T00:43:16.919Z,46.65
2023-03-11T00:45:44.892Z,46.93
2023-03-11T00:48:13.919Z,46.83
2023-03-11T00:50:42.430Z,47.08
2023-03-11T00:53:10.572Z,47.41
2023-03-11T00:55:38.232Z,47.34
2023-03-11T00:58:08.952Z,47.32
2023-03-11T01:00:41.689Z,47.35
2023-03-11T01:03:09.871Z,47.60
2023-03-11T01:05:37.453Z,47.61
2023-03-11T01:08:05.631Z,47.35
2023-03-11T01:10:34.562Z,47.31
2023-03-11T01:13:02.944Z,47.80
2023-03-11T01:15:34.112Z,47.49
2023-03-11T01:18:02.264Z,47.86
2023-03-11T01:20:34.144Z,48.12
2023-03-11T01:23:01.750Z,48.08
2023-03-11T01:25:29.863Z,47.88
2023-03-11T01:27:59.548Z,48.03
2023-03-11T01:30:30.366Z,48.56
2023-03-11T01:32:58.611Z,48.39
2023-03-11T01:35:30.849Z,48.65
2023-03-11T01:37:59.335Z,48.17
2023-03-11T01:40:40.379Z,48.57
2023-03-11T01:43:44.744Z,48.70
2023-03-11T01:46:54.187Z,48.95
2023-03-11T01:49:26.061Z,48.25
2023-03-11T01:52:08.038Z,49.31
2023-03-11T01:54:42.485Z,48.95
2023-03-11T01:57:13.583Z,48.68
2023-03-11T01:59:47.724Z,48.73
2023-03-11T02:02:21.773Z,48.96
2023-03-11T02:04:50.944Z,48.63
2023-03-11T02:07:18.870Z,48.49
2023-03-11T02:09:48.761Z,48.86
2023-03-11T02:12:16.857Z,49.27
2023-03-11T02:14:49.111Z,49.39
2023-03-11T02:17:17.069Z,49.24
2023-03-11T02:20:05.946Z,49.47
2023-03-11T02:22:34.752Z,49.59
2023-03-11T02:25:30.520Z,50.31
2023-03-11T02:27:59.977Z,49.94
2023-03-11T02:30:29.567Z,50.03
2023-03-11T02:32:57.531Z,49.98
2023-03-11T02:35:25.891Z,50.35
2023-03-11T02:37:55.659Z,50.54
2023-03-11T02:40:23.780Z,50.73
2023-03-11T02:42:58.195Z,51.03
2023-03-11T02:45:27.444Z,50.54
2023-03-11T02:47:58.283Z,50.83
2023-03-11T02:50:28.548Z,50.58
2023-03-11T02:52:56.892Z,51.21
2023-03-11T02:55:24.576Z,51.46
2023-03-11T02:57:52.058Z,51.86
2023-03-11T03:00:23.130Z,52.06
2023-03-11T03:02:57.032Z,52.11
2023-03-11T03:05:27.004Z,52.22
2023-03-11T03:07:54.817Z,52.69
2023-03-11T03:10:23.983Z,53.17
2023-03-11T03:12:51.672Z,53.53
2023-03-11T03:15:19.224Z,53.73
2023-03-11T03:17:47.084Z,54.29
2023-03-11T03:20:15.091Z,55.32
2023-03-11T03:22:48.741Z,54.88
2023-03-11T03:25:18.649Z,55.26
2023-03-11T03:27:46.848Z,56.07
2023-03-11T03:30:15.304Z,55.86
2023-03-11T03:32:43.807Z,56.54
2023-03-11T03:35:14.351Z,56.70
2023-03-11T03:38:01.717Z,56.89
2023-03-11T03:40:29.658Z,57.19
2023-03-11T03:42:59.573Z,57.54
2023-03-11T03:45:28.546Z,58.04
2023-03-11T03:47:56.029Z,57.88
2023-03-11T03:50:25.585Z,58.56
2023-03-11T03:52:55.117Z,58.53
2023-03-11T03:55:24.000Z,59.14
2023-03-11T03:57:52.398Z,59.45
2023-03-11T04:00:22.274Z,60.12
2023-03-11T04:02:57.043Z,60.10
2023-03-11T04:05:41.649Z,60.84
2023-03-11T04:08:09.404Z,60.46
2023-03-11T04:10:36.864Z,60.93
2023-03-11T04:13:05.064Z,61.17
2023-03-11T04:15:33.200Z,61.88
2023-03-11T04:18:00.819Z,61.27
2023-03-11T04:20:28.394Z,61.83
2023-03-11T04:22:56.021Z,62.06
2023-03-11T04:25:25.124Z,62.64
2023-03-11T04:27:52.845Z,62.97
2023-03-11T04:30:21.866Z,62.88
2023-03-11T04:32:54.756Z,62.15
2023-03-11T04:35:22.518Z,62.53
2023-03-11T04:37:50.294Z,62.79
2023-03-11T04:40:18.219Z,63.06
2023-03-11T04:42:45.958Z,62.70
2023-03-11T04:45:14.284Z,63.03
2023-03-11T04:47:44.075Z,62.25
2023-03-11T04:50:11.834Z,61.54
2023-03-11T04:52:39.654Z,62.10
2023-03-11T04:55:08.446Z,62.39
2023-03-11T04:57:36.091Z,61.71
2023-03-11T05:00:11.971Z,61.96
2023-03-11T05:02:43.331Z,62.50
2023-03-11T05:05:12.146Z,62.42
2023-03-11T05:07:41.789Z,62.31
2023-03-11T05:10:10.820Z,62.40
2023-03-11T05:12:40.581Z,62.15
2023-03-11T05:15:08.720Z,62.33
2023-03-11T05:17:37.459Z,62.13
2023-03-11T05:20:07.609Z,62.07
2023-03-11T05:22:36.164Z,61.62
2023-03-11T05:25:05.133Z,62.26
2023-03-11T05:27:33.133Z,62.56
2023-03-11T05:30:00.669Z,61.89
2023-03-11T05:32:31.618Z,62.29
2023-03-11T05:34:59.305Z,61.88
2023-03-11T05:37:27.498Z,61.94
2023-03-11T05:39:56.622Z,61.78
2023-03-11T05:42:24.331Z,62.79
2023-03-11T05:44:54.638Z,62.72
2023-03-11T05:47:24.142Z,62.71
2023-03-11T05:49:51.697Z,62.66
2023-03-11T05:52:20.735Z,62.61
2023-03-11T05:54:52.626Z,62.75
2023-03-11T05:57:24.492Z,62.88
2023-03-11T05:59:52.004Z,62.58
2023-03-11T06:02:21.246Z,63.03
2023-03-11T06:04:49.671Z,62.91
2023-03-11T06:07:17.600Z,63.00
2023-03-11T06:09:50.668Z,62.79
2023-03-11T06:12:19.571Z,62.17
2023-03-11T06:14:59.506Z,62.86
2023-03-11T06:17:30.712Z,62.30
2023-03-11T06:19:58.706Z,62.98
2023-03-11T06:22:26.489Z,62.50
2023-03-11T06:24:53.987Z,62.55
2023-03-11T06:27:22.343Z,62.89
2023-03-11T06:29:54.609Z,63.14
2023-03-11T06:32:24.541Z,62.87
2023-03-11T06:34:53.085Z,63.17
2023-03-11T06:37:23.750Z,62.97
2023-03-11T06:39:54.673Z,62.76
2023-03-11T06:42:24.521Z,63.47
2023-03-11T06:44:54.456Z,63.67
2023-03-11T06:47:22.356Z,64.29
2023-03-11T06:49:51.569Z,64.41
2023-03-11T06:52:19.640Z,64.17
2023-03-11T06:54:47.273Z,64.47
2023-03-11T06:57:17.235Z,65.66
2023-03-11T06:59:47.435Z,66.28
2023-03-11T07:02:17.490Z,65.86
2023-03-11T07:04:45.238Z,65.49
2023-03-11T07:07:13.008Z,65.67
2023-03-11T07:09:40.485Z,65.76
2023-03-11T07:12:10.366Z,65.59
2023-03-11T07:14:39.235Z,65.46
2023-03-11T07:17:06.763Z,64.88
2023-03-11T07:19:43.988Z,64.53
2023-03-11T07:22:11.563Z,64.65
2023-03-11T07:24:39.019Z,64.46
2023-03-11T07:27:06.674Z,64.72
2023-03-11T07:29:35.209Z,64.50
2023-03-11T07:32:02.836Z,64.01
2023-03-11T07:34:31.542Z,63.79
2023-03-11T07:36:59.098Z,63.48
2023-03-11T07:39:26.683Z,63.58
2023-03-11T07:41:54.145Z,63.41
2023-03-11T07:44:21.775Z,63.61
2023-03-11T07:46:49.242Z,63.38
2023-03-11T07:49:17.086Z,63.12
2023-03-11T07:51:44.940Z,63.46
2023-03-11T07:54:13.383Z,63.33
2023-03-11T07:56:41.560Z,63.11
2023-03-11T07:59:09.051Z,63.60
2023-03-11T08:01:41.457Z,64.09
2023-03-11T08:04:14.176Z,64.46
2023-03-11T08:06:44.509Z,64.01
2023-03-11T08:09:12.627Z,64.00
2023-03-11T08:11:40.160Z,64.38
2023-03-11T08:14:08.091Z,64.23
2023-03-11T08:16:35.614Z,64.51
2023-03-11T08:19:03.408Z,65.57
2023-03-11T08:21:32.429Z,65.26
2023-03-11T08:24:02.188Z,64.87
2023-03-11T08:26:32.001Z,65.19
2023-03-11T08:28:59.835Z,65.33
2023-03-11T08:31:29.998Z,65.54
2023-03-11T08:34:03.545Z,65.53
2023-03-11T08:36:32.136Z,65.09
2023-03-11T08:39:01.301Z,64.76
2023-03-11T08:41:29.015Z,64.20
2023-03-11T08:43:56.975Z,63.85
2023-03-11T08:46:29.200Z,63.47
2023-03-11T08:49:00.873Z,63.72
2023-03-11T08:51:30.972Z,63.31
2023-03-11T08:53:59.137Z,63.08
2023-03-11T08:56:26.956Z,62.97
2023-03-11T08:58:54.692Z,62.73
2023-03-11T09:01:23.826Z,62.96
2023-03-11T09:03:51.894Z,62.66
2023-03-11T09:06:19.849Z,62.42
2023-03-11T09:08:48.593Z,62.63
2023-03-11T09:11:18.574Z,63.18
2023-03-11T09:13:46.128Z,64.09
2023-03-11T09:16:23.881Z,64.77
2023-03-11T09:18:51.612Z,65.85
2023-03-11T09:21:19.586Z,66.13
2023-03-11T09:23:50.547Z,66.08
2023-03-11T09:26:18.149Z,66.53
2023-03-11T09:28:49.154Z,67.17
2023-03-11T09:31:18.234Z,66.84
2023-03-11T09:33:50.179Z,66.87
2023-03-11T09:36:20.364Z,66.72
2023-03-11T09:38:48.872Z,66.56
2023-03-11T09:41:57.463Z,67.36
2023-03-11T09:44:37.442Z,66.59
2023-03-11T09:47:42.088Z,65.53
2023-03-11T09:50:41.724Z,65.47
2023-03-11T09:53:22.032Z,65.78
2023-03-11T09:55:59.345Z,65.29
2023-03-11T09:58:45.832Z,65.09
2023-03-11T10:01:19.652Z,64.39
2023-03-11T10:03:48.792Z,63.99
2023-03-11T10:06:23.822Z,64.17
2023-03-11T10:09:12.602Z,63.87
2023-03-11T10:12:16.392Z,63.78
2023-03-11T10:15:09.489Z,63.45
2023-03-11T10:17:36.939Z,62.76
2023-03-11T10:20:15.562Z,63.02
2023-03-11T10:23:19.587Z,63.89
2023-03-11T10:25:58.933Z,63.67
2023-03-11T10:28:53.375Z,62.70
2023-03-11T10:31:38.268Z,63.18
2023-03-11T10:34:26.662Z,63.48
2023-03-11T10:37:03.990Z,63.78
2023-03-11T10:39:33.503Z,63.11
2023-03-11T10:42:05.327Z,63.01
2023-03-11T10:44:38.336Z,62.92
2023-03-11T10:47:07.424Z,62.69
2023-03-11T10:49:34.981Z,62.46
2023-03-11T10:52:04.169Z,62.41
2023-03-11T10:54:35.884Z,62.91
2023-03-11T10:57:06.640Z,62.85
2023-03-11T10:59:46.733Z,62.49
2023-03-11T11:02:42.687Z,62.70
2023-03-11T11:05:22.901Z,63.26
2023-03-11T11:08:06.639Z,64.11
2023-03-11T11:10:36.516Z,63.86
2023-03-11T11:13:12.986Z,63.70
2023-03-11T11:15:51.326Z,63.79
2023-03-11T11:18:21.400Z,63.87
2023-03-11T11:21:01.021Z,63.30
2023-03-11T11:23:34.715Z,64.05
2023-03-11T11:26:06.733Z,63.93
2023-03-11T11:28:35.188Z,64.08
2023-03-11T11:31:06.277Z,63.97
2023-03-11T11:33:40.473Z,64.24
2023-03-11T11:36:15.412Z,63.93
2023-03-11T11:38:43.345Z,64.09
2023-03-11T11:41:17.106Z,64.37
2023-03-11T11:43:55.467Z,64.74
2023-03-11T11:46:46.285Z,64.90
2023-03-11T11:49:16.904Z,64.90
2023-03-11T11:51:47.210Z,64.70
2023-03-11T11:54:15.462Z,64.38
2023-03-11T11:56:43.614Z,64.50
2023-03-11T11:59:19.044Z,64.71
2023-03-11T12:02:05.153Z,65.15
2023-03-11T12:04:43.691Z,64.82
2023-03-11T12:07:11.447Z,64.79
2023-03-11T12:10:01.970Z,65.16
2023-03-11T12:13:11.124Z,64.94
2023-03-11T12:15:44.343Z,64.80
2023-03-11T12:18:20.019Z,64.78
2023-03-11T12:20:57.515Z,64.95
2023-03-11T12:23:32.962Z,65.38
2023-03-11T12:26:20.280Z,65.04
2023-03-11T12:28:53.503Z,64.92
2023-03-11T12:31:23.467Z,64.47
2023-03-11T12:33:59.188Z,64.81
2023-03-11T12:36:34.114Z,65.12
2023-03-11T12:39:06.135Z,64.93
2023-03-11T12:41:40.188Z,65.35
2023-03-11T12:44:29.029Z,65.02
2023-03-11T12:46:59.609Z,65.08
2023-03-11T12:49:36.178Z,65.18
2023-03-11T12:52:18.203Z,65.43
2023-03-11T12:54:50.234Z,64.60
2023-03-11T12:57:18.629Z,64.85
2023-03-11T13:00:08.240Z,64.92
2023-03-11T13:02:56.701Z,65.12
2023-03-11T13:06:02.476Z,65.65
2023-03-11T13:08:50.495Z,65.22
2023-03-11T13:11:33.005Z,65.72
2023-03-11T13:14:18.273Z,65.13
2023-03-11T13:16:46.987Z,65.40
2023-03-11T13:19:26.498Z,65.43
2023-03-11T13:21:55.670Z,65.22
2023-03-11T13:24:25.920Z,65.46
2023-03-11T13:26:56.614Z,65.07
2023-03-11T13:29:54.960Z,65.34
2023-03-11T13:32:58.630Z,65.31
2023-03-11T13:35:35.522Z,65.06
2023-03-11T13:38:44.342Z,65.39
2023-03-11T13:41:21.263Z,65.32
2023-03-11T13:43:52.320Z,64.98
2023-03-11T13:46:32.766Z,65.25
2023-03-11T13:49:08.393Z,65.94
2023-03-11T13:51:41.222Z,65.23
2023-03-11T13:54:30.024Z,65.83
2023-03-11T13:57:00.921Z,65.75
2023-03-11T13:59:35.054Z,65.93
2023-03-11T14:02:08.468Z,66.15
2023-03-11T14:04:40.138Z,65.77
2023-03-11T14:07:26.011Z,66.67
2023-03-11T14:10:12.340Z,66.99
2023-03-11T14:12:40.061Z,65.94
2023-03-11T14:15:09.369Z,66.62
2023-03-11T14:17:36.995Z,66.66
2023-03-11T14:20:12.159Z,66.60
2023-03-11T14:22:39.769Z,66.84
2023-03-11T14:25:16.073Z,66.95
2023-03-11T14:27:54.354Z,66.93
2023-03-11T14:30:27.629Z,67.09
2023-03-11T14:33:04.452Z,67.08
2023-03-11T14:35:34.069Z,66.80
2023-03-11T14:38:01.802Z,67.34
2023-03-11T14:40:37.851Z,67.06
2023-03-11T14:43:08.260Z,67.72
2023-03-11T14:45:38.286Z,67.79
2023-03-11T14:48:15.048Z,68.02
2023-03-11T14:50:45.123Z,68.10
2023-03-11T14:53:14.911Z,67.50
2023-03-11T14:55:51.133Z,67.62
2023-03-11T14:58:34.754Z,67.85
2023-03-11T15:01:05.919Z,67.92
2023-03-11T15:03:38.194Z,67.67
2023-03-11T15:06:18.578Z,68.00
2023-03-11T15:08:49.797Z,67.74
2023-03-11T15:11:17.422Z,67.90
2023-03-11T15:13:50.915Z,67.85
2023-03-11T15:16:33.696Z,68.70
2023-03-11T15:19:21.128Z,67.88
2023-03-11T15:21:50.871Z,67.97
2023-03-11T15:24:21.258Z,68.01
2023-03-11T15:26:58.311Z,67.97
2023-03-11T15:29:27.911Z,67.71
2023-03-11T15:31:57.344Z,67.52
2023-03-11T15:34:26.768Z,67.49
2023-03-11T15:36:58.034Z,67.59
2023-03-11T15:39:47.732Z,67.57
2023-03-11T15:42:20.233Z,67.30
2023-03-11T15:45:09.381Z,68.03
2023-03-11T15:47:37.041Z,67.65
2023-03-11T15:50:24.824Z,67.95
2023-03-11T15:52:56.434Z,67.79
2023-03-11T15:55:26.500Z,68.06
2023-03-11T15:58:08.053Z,68.75
2023-03-11T16:00:36.974Z,68.12
2023-03-11T16:03:06.219Z,68.30
2023-03-11T16:05:33.887Z,68.10
2023-03-11T16:08:01.904Z,68.51
2023-03-11T16:10:29.581Z,68.18
2023-03-11T16:12:57.240Z,68.57
2023-03-11T16:15:29.689Z,68.51
2023-03-11T16:18:02.440Z,68.79
2023-03-11T16:20:36.465Z,69.51
2023-03-11T16:23:04.320Z,69.19
2023-03-11T16:25:36.376Z,69.01
2023-03-11T16:28:04.782Z,68.91
2023-03-11T16:30:34.568Z,69.05
2023-03-11T16:33:05.301Z,69.13
2023-03-11T16:35:33.964Z,69.20
2023-03-11T16:38:02.302Z,69.48
2023-03-11T16:40:30.085Z,69.46
2023-03-11T16:43:05.801Z,69.73
2023-03-11T16:45:33.676Z,70.00
2023-03-11T16:48:01.308Z,69.54
2023-03-11T16:50:28.977Z,69.51
2023-03-11T16:52:57.507Z,69.45
2023-03-11T16:55:26.706Z,69.50
2023-03-11T16:57:56.364Z,69.70
2023-03-11T17:00:27.937Z,69.56
2023-03-11T17:02:55.431Z,69.22
2023-03-11T17:05:23.266Z,69.16
2023-03-11T17:08:01.142Z,69.62
2023-03-11T17:10:29.080Z,69.08
2023-03-11T17:12:56.898Z,68.99
2023-03-11T17:15:24.483Z,68.88
2023-03-11T17:17:52.006Z,69.12
2023-03-11T17:20:21.638Z,68.72
2023-03-11T17:22:49.665Z,68.89
2023-03-11T17:25:17.563Z,69.08
2023-03-11T17:27:45.629Z,69.26
2023-03-11T17:30:19.432Z,69.18
2023-03-11T17:32:54.126Z,69.12
2023-03-11T17:35:22.058Z,69.42
2023-03-11T17:37:49.728Z,69.14
2023-03-11T17:40:17.635Z,69.56
2023-03-11T17:42:45.483Z,69.33
2023-03-11T17:45:13.461Z,69.47
2023-03-11T17:47:41.411Z,69.52
2023-03-11T17:50:09.829Z,69.27
2023-03-11T17:52:37.518Z,69.12
2023-03-11T17:55:05.461Z,69.14
2023-03-11T17:57:44.436Z,69.18
2023-03-11T18:00:14.988Z,69.18
2023-03-11T18:02:43.433Z,69.08
2023-03-11T18:05:10.947Z,69.28
2023-03-11T18:07:42.922Z,69.62
2023-03-11T18:10:12.633Z,69.57
2023-03-11T18:12:45.010Z,69.78
2023-03-11T18:15:18.932Z,69.89
2023-03-11T18:17:47.684Z,69.77
2023-03-11T18:20:17.039Z,69.89
2023-03-11T18:22:46.718Z,69.84
2023-03-11T18:25:14.782Z,70.05
2023-03-11T18:27:42.454Z,70.52
2023-03-11T18:30:11.362Z,71.33
2023-03-11T18:32:38.973Z,70.43
2023-03-11T18:35:06.993Z,70.50
2023-03-11T18:37:34.678Z,70.72
2023-03-11T18:40:03.683Z,70.58
2023-03-11T18:42:32.329Z,71.10
2023-03-11T18:44:59.858Z,71.54
2023-03-11T18:47:35.608Z,71.65
2023-03-11T18:50:04.216Z,71.39
2023-03-11T18:52:34.274Z,71.66
2023-03-11T18:55:01.908Z,71.69
2023-03-11T18:57:30.942Z,71.84
2023-03-11T18:59:58.573Z,71.55
2023-03-11T19:02:26.269Z,71.53
2023-03-11T19:04:54.064Z,71.77
2023-03-11T19:07:22.757Z,71.93
2023-03-11T19:09:50.413Z,72.71
2023-03-11T19:12:18.191Z,72.90
2023-03-11T19:14:45.802Z,73.17
2023-03-11T19:17:16.475Z,73.42
2023-03-11T19:19:44.245Z,73.84
2023-03-11T19:22:11.722Z,73.22
2023-03-11T19:24:39.513Z,72.72
2023-03-11T19:27:07.022Z,73.65
2023-03-11T19:29:34.679Z,73.81
2023-03-11T19:32:03.580Z,73.81
2023-03-11T19:34:31.614Z,73.36
2023-03-11T19:36:59.365Z,73.20
2023-03-11T19:39:26.826Z,73.71
2023-03-11T19:41:55.578Z,73.63
2023-03-11T19:44:23.796Z,73.93
2023-03-11T19:46:51.541Z,73.51
2023-03-11T19:49:19.127Z,73.92
2023-03-11T19:51:50.457Z,73.87
2023-03-11T19:54:19.033Z,75.11
2023-03-11T19:56:46.807Z,74.91
2023-03-11T19:59:14.670Z,75.02
2023-03-11T20:01:42.991Z,75.66
2023-03-11T20:04:11.275Z,75.73
2023-03-11T20:06:39.152Z,76.26
2023-03-11T20:09:07.292Z,75.31
2023-03-11T20:11:38.834Z,76.01
2023-03-11T20:14:07.105Z,75.68
2023-03-11T20:16:34.826Z,76.16
2023-03-11T20:19:02.510Z,76.75
2023-03-11T20:21:30.232Z,76.79
2023-03-11T20:23:58.360Z,77.14
2023-03-11T20:26:27.128Z,77.04
2023-03-11T20:28:57.909Z,77.45
2023-03-11T20:31:28.547Z,76.64
2023-03-11T20:33:58.426Z,77.21
2023-03-11T20:36:29.625Z,77.32
2023-03-11T20:38:57.685Z,77.22
2023-03-11T20:41:26.552Z,77.45
2023-03-11T20:43:56.227Z,77.60
2023-03-11T20:46:24.273Z,77.77
2023-03-11T20:48:51.972Z,77.92
2023-03-11T20:51:20.961Z,77.38
2023-03-11T20:53:49.136Z,78.13
2023-03-11T20:56:20.220Z,78.34
2023-03-11T20:58:51.220Z,77.82
2023-03-11T21:01:23.411Z,78.39
2023-03-11T21:03:54.291Z,77.96
2023-03-11T21:06:28.293Z,78.84
2023-03-11T21:08:58.058Z,79.33
2023-03-11T21:11:26.322Z,78.93
2023-03-11T21:13:54.784Z,78.60
2023-03-11T21:16:22.700Z,78.38
2023-03-11T21:18:50.541Z,78.78
2023-03-11T21:21:19.276Z,78.68
2023-03-11T21:23:48.025Z,79.04
2023-03-11T21:26:17.529Z,79.33
2023-03-11T21:28:47.067Z,79.19
2023-03-11T21:31:18.161Z,79.75
2023-03-11T21:33:48.531Z,79.42
2023-03-11T21:36:16.716Z,79.81
2023-03-11T21:38:44.565Z,80.16
2023-03-11T21:41:15.583Z,80.13
2023-03-11T21:43:44.222Z,79.80
2023-03-11T21:46:15.860Z,80.66
2023-03-11T21:48:44.305Z,80.83
2023-03-11T21:51:15.581Z,80.51
2023-03-11T21:53:43.487Z,80.29
2023-03-11T21:56:11.239Z,80.71
2023-03-11T21:58:39.507Z,81.27
2023-03-11T22:01:11.164Z,80.82
2023-03-11T22:03:39.301Z,81.03
2023-03-11T22:06:10.231Z,81.30
2023-03-11T22:08:42.462Z,80.67
2023-03-11T22:11:19.063Z,81.11
2023-03-11T22:13:47.491Z,81.11
2023-03-11T22:16:17.980Z,81.63
2023-03-11T22:18:46.698Z,81.87
2023-03-11T22:21:16.458Z,82.41
2023-03-11T22:23:45.120Z,81.95
2023-03-11T22:26:12.935Z,81.68
2023-03-11T22:28:40.742Z,81.98
2023-03-11T22:31:11.045Z,82.22
2023-03-11T22:33:39.000Z,82.30
2023-03-11T22:36:07.862Z,82.38
2023-03-11T22:38:37.087Z,81.72
2023-03-11T22:41:08.352Z,81.96
2023-03-11T22:43:36.854Z,81.75
2023-03-11T22:46:06.512Z,82.24
2023-03-11T22:48:34.955Z,81.80
2023-03-11T22:51:02.660Z,81.67
2023-03-11T22:53:30.458Z,81.72
2023-03-11T22:55:58.076Z,82.18
2023-03-11T22:58:25.701Z,82.44
2023-03-11T23:00:53.123Z,81.92
2023-03-11T23:03:20.633Z,82.00
2023-03-11T23:05:48.224Z,82.31
2023-03-11T23:08:16.607Z,82.65
2023-03-11T23:10:46.653Z,82.23
2023-03-11T23:13:14.220Z,82.04
2023-03-11T23:15:44.263Z,82.51
2023-03-11T23:18:13.026Z,82.51
2023-03-11T23:20:42.286Z,82.38
2023-03-11T23:23:10.727Z,82.44
2023-03-11T23:25:39.958Z,82.57
2023-03-11T23:28:07.763Z,82.68
2023-03-11T23:30:35.602Z,82.59
2023-03-11T23:33:03.464Z,82.60
2023-03-11T23:35:31.793Z,82.26
2023-03-11T23:38:00.557Z,82.72
2023-03-11T23:40:28.266Z,82.58
2023-03-11T23:42:55.892Z,82.83
2023-03-11T23:45:23.380Z,82.82
2023-03-11T23:47:50.890Z,82.53
2023-03-11T23:50:18.578Z,82.53
2023-03-11T23:52:46.153Z,82.54
2023-03-11T23:55:13.717Z,82.46
2023-03-11T23:57:48.663Z,82.49
